Jackson, Thomas
United StatesManBorn 19601980 – 2026Runner id 15854
Events
59
1980 – 2026
Best pace
10.866
km/h · 1980
Best finish
1st
of 104 · 2019
Distance raced
11,541
km · splits not double-counted
Pace over time
km/h · higher is faster
Pace over time: 58 races and 1 split from 1980 to 2026, ranging from 3.49 to 10.87 kilometres per hour, where higher is faster. A second, age-graded series is drawn above it; the gap between the two is the age credit.
- Actual pace
- Age-graded pace
- Split of a race already plotted
Results
| Date | Event | Distance | Result | Pace km/h | Placing |
|---|---|---|---|---|---|
| 1980-04-13 | American River 50 Mile Endurance RunUnited States | 50mi | 7:24:19 h | 10.866 | 10/159 |
| 1981-02-28 | Flatlander Ultramarathon - 100 Mile RunUnited States | 100mi | 17:51:10 h | 9.015 | 1/5 |
| 1981-04-12 | American River 50 Mile Endurance RunUnited States | 50mi | 9:21:17 h | 8.602 | 163/270 |
| 1984-04-14 | The New Astley Belt Six Day Race - 100mi SplitUnited StatesSplit of a longer race in this career; not counted again in the distance total | 100mi | 21:58:18 h | 7.325 | 5/9 |
| 2004-08-28 | 100mi | 30:23:00 h | 5.297 | 33/50 | |
| 2005-06-17 | 100mi | 30:24:51 h | 5.291 | 21/53 | |
| 2005-08-20 | 100km | 16:46:34 h | 5.961 | 23/38 | |
| 2006-05-20 | Watershed Preserve 12 Hr Trail RaceUnited States | 12h | 100.954 km | 8.413 | 5/30 |
| 2006-06-16 | 100mi | 29:17:45 h | 5.493 | 33/78 | |
| 2006-08-19 | 100km | 16:11:13 h | 6.178 | 30/47 | |
| 2006-09-09 | 100mi | 29:09:45 h | 5.519 | 47/151 | |
| 2007-06-15 | 100mi | 28:24:50 h | 5.664 | 20/81 | |
| 2007-09-28 | 100mi | 27:24:00 h | 5.874 | 15/62 | |
| 2008-04-12 | Brew to Brew 44.4 mileUnited States | 44.4mi | 8:21:12 h | 8.554 | 27/52 |
| 2008-07-26 | 50mi | 11:29:04 h | 7.007 | 149/202 | |
| 2008-08-23 | 100mi | 25:52:45 h | 6.219 | 20/77 | |
| 2008-09-13 | 100mi | 33:38:12 h | 4.784 | 8/14 | |
| 2009-05-16 | Watershed Preserve 12 Hr Trail RaceUnited States | 12h | 96.319 km | 8.027 | 12/66 |
| 2009-06-27 | 100mi | 26:16:19 h | 6.126 | 94/238 | |
| 2009-09-25 | 100mi | 27:17:17 h | 5.898 | 17/94 | |
| 2010-06-18 | 100mi | 29:39:50 h | 5.425 | 48/95 | |
| 2010-09-11 | 100mi | 32:21:00 h | 4.975 | 6/11 | |
| 2011-03-25 | 100mi | 24:39:00 h | 6.529 | 5/17 | |
| 2011-12-30 | 48h | 302.421 km | 6.300 | 1/45 | |
| 2012-04-01 | 44.4mi | 9:19:34 h | 7.662 | 57/62 | |
| 2012-06-15 | 100mi | 27:54:54 h | 5.765 | 42/116 | |
| 2012-10-06 | 100mi | 21:17:06 h | 7.561 | 4/25 | |
| 2013-03-22 | 100mi | 22:05:10 h | 7.287 | 14/54 | |
| 2013-05-24 | 150mi | 35:59:00 h | 6.709 | 4/8 | |
| 2013-08-23 | 100mi | 33:36:00 h | 4.790 | 10/12 | |
| 2014-03-22 | 50mi | 13:51:51 h | 5.804 | 16/16 | |
| 2014-06-20 | 100mi | 28:56:22 h | 5.561 | 67/149 | |
| 2014-12-30 | 48h | 234.838 km | 4.892 | 1/72 | |
| 2015-05-22 | Pigtails Challenge 150 MileUnited States | 150mi | 34:27:35 h | 7.005 | 1/6 |
| 2015-08-14 | 120mi | 41:47:28 h | 4.621 | 57/97 | |
| 2016-03-24 | 48h | 303.499 km | 6.323 | 1/19 | |
| 2016-09-10 | 100mi | 30:52:08 h | 5.213 | 65/82 | |
| 2016-10-07 | 120mi | 46:09:54 h | 4.183 | 21/27 | |
| 2017-04-28 | 100mi | 23:33:34 h | 6.831 | 10/31 | |
| 2017-06-16 | 100mi | 32:35:40 h | 4.937 | 129/174 | |
| 2017-12-30 | 48h | 309.178 km | 6.441 | 1/83 | |
| 2018-06-01 | 100mi | 32:54:54 h | 4.889 | 21/28 | |
| 2018-09-28 | 246km | 35:34:18 h | 6.916 | 209/239 | |
| 2019-03-29 | 100mi | 23:56:26 h | 6.722 | 34/83 | |
| 2019-09-26 | 72h | 380.207 km | 5.281 | 1/9 | |
| 2019-12-28 | 48h | 281.598 km | 5.867 | 1/104 | |
| 2020-06-18 | 326mi | 6d 06:31:04 h | 3.486 | 6/49 | |
| 2020-11-20 | 48h | 198.770 km | 4.141 | 3/7 | |
| 2021-03-26 | 100mi | 27:36:42 h | 5.828 | 43/71 | |
| 2021-05-28 | 150mi | 37:19:58 h | 6.466 | 1/1 |
Showing 1–50 of 59